sensor_id;sensor_type;location;lat;lon;timestamp;temperature;humidity
18229;DHT22;9239;50.932;3.142;2023-11-21T00:01:19;9.20;99.90
18229;DHT22;9239;50.932;3.142;2023-11-21T00:03:47;9.30;99.90
18229;DHT22;9239;50.932;3.142;2023-11-21T00:06:14;9.30;99.90
18229;DHT22;9239;50.932;3.142;2023-11-21T00:08:41;9.30;99.90
18229;DHT22;9239;50.932;3.142;2023-11-21T00:11:08;9.30;99.90
18229;DHT22;9239;50.932;3.142;2023-11-21T00:13:34;9.30;99.90
18229;DHT22;9239;50.932;3.142;2023-11-21T00:16:01;9.30;99.90
18229;DHT22;9239;50.932;3.142;2023-11-21T00:18:29;9.30;99.90
18229;DHT22;9239;50.932;3.142;2023-11-21T00:20:58;9.40;99.90
18229;DHT22;9239;50.932;3.142;2023-11-21T00:23:24;9.40;99.90
18229;DHT22;9239;50.932;3.142;2023-11-21T00:25:52;9.30;99.90
18229;DHT22;9239;50.932;3.142;2023-11-21T00:28:18;9.30;99.90
18229;DHT22;9239;50.932;3.142;2023-11-21T00:30:45;9.40;99.90
18229;DHT22;9239;50.932;3.142;2023-11-21T00:33:12;9.40;99.90
18229;DHT22;9239;50.932;3.142;2023-11-21T00:35:39;9.30;99.90
18229;DHT22;9239;50.932;3.142;2023-11-21T00:38:07;9.40;99.90
18229;DHT22;9239;50.932;3.142;2023-11-21T00:40:35;9.40;99.90
18229;DHT22;9239;50.932;3.142;2023-11-21T00:43:01;9.30;99.90
18229;DHT22;9239;50.932;3.142;2023-11-21T00:45:28;9.30;99.90
18229;DHT22;9239;50.932;3.142;2023-11-21T00:47:55;9.30;99.90
18229;DHT22;9239;50.932;3.142;2023-11-21T00:50:23;9.30;99.90
18229;DHT22;9239;50.932;3.142;2023-11-21T00:52:50;9.30;99.90
18229;DHT22;9239;50.932;3.142;2023-11-21T00:55:19;9.30;99.90
18229;DHT22;9239;50.932;3.142;2023-11-21T00:57:46;9.30;99.90
18229;DHT22;9239;50.932;3.142;2023-11-21T01:00:14;9.30;99.90
18229;DHT22;9239;50.932;3.142;2023-11-21T01:02:42;9.30;99.90
18229;DHT22;9239;50.932;3.142;2023-11-21T01:05:10;9.30;99.90
18229;DHT22;9239;50.932;3.142;2023-11-21T01:07:37;9.30;99.90
18229;DHT22;9239;50.932;3.142;2023-11-21T01:10:04;9.20;99.90
18229;DHT22;9239;50.932;3.142;2023-11-21T01:12:34;9.30;99.90
18229;DHT22;9239;50.932;3.142;2023-11-21T01:15:02;9.30;99.90
18229;DHT22;9239;50.932;3.142;2023-11-21T01:17:29;9.30;99.90
18229;DHT22;9239;50.932;3.142;2023-11-21T01:19:56;9.30;99.90
18229;DHT22;9239;50.932;3.142;2023-11-21T01:22:23;9.30;99.90
18229;DHT22;9239;50.932;3.142;2023-11-21T01:24:51;9.30;99.90
18229;DHT22;9239;50.932;3.142;2023-11-21T01:27:19;9.30;99.90
18229;DHT22;9239;50.932;3.142;2023-11-21T01:29:47;9.30;99.90
18229;DHT22;9239;50.932;3.142;2023-11-21T01:32:14;9.30;99.90
18229;DHT22;9239;50.932;3.142;2023-11-21T01:34:40;9.40;99.90
18229;DHT22;9239;50.932;3.142;2023-11-21T01:37:07;9.40;99.90
18229;DHT22;9239;50.932;3.142;2023-11-21T01:39:37;9.40;99.90
18229;DHT22;9239;50.932;3.142;2023-11-21T01:42:05;9.40;99.90
18229;DHT22;9239;50.932;3.142;2023-11-21T01:44:33;9.40;99.90
18229;DHT22;9239;50.932;3.142;2023-11-21T01:47:01;9.40;99.90
18229;DHT22;9239;50.932;3.142;2023-11-21T01:49:31;9.50;99.90
18229;DHT22;9239;50.932;3.142;2023-11-21T01:51:59;9.40;99.90
18229;DHT22;9239;50.932;3.142;2023-11-21T01:54:26;9.50;99.90
18229;DHT22;9239;50.932;3.142;2023-11-21T01:56:57;9.50;99.90
18229;DHT22;9239;50.932;3.142;2023-11-21T01:59:29;9.50;99.90
18229;DHT22;9239;50.932;3.142;2023-11-21T02:02:02;9.40;99.90
18229;DHT22;9239;50.932;3.142;2023-11-21T02:04:30;9.50;99.90
18229;DHT22;9239;50.932;3.142;2023-11-21T02:06:57;9.50;99.90
18229;DHT22;9239;50.932;3.142;2023-11-21T02:09:26;9.50;99.90
18229;DHT22;9239;50.932;3.142;2023-11-21T02:11:53;9.50;99.90
18229;DHT22;9239;50.932;3.142;2023-11-21T02:14:20;9.60;99.90
18229;DHT22;9239;50.932;3.142;2023-11-21T02:16:47;9.60;99.90
18229;DHT22;9239;50.932;3.142;2023-11-21T02:19:18;9.60;99.90
18229;DHT22;9239;50.932;3.142;2023-11-21T02:21:49;9.60;99.90
18229;DHT22;9239;50.932;3.142;2023-11-21T02:24:19;9.60;99.90
18229;DHT22;9239;50.932;3.142;2023-11-21T02:26:46;9.70;99.90
18229;DHT22;9239;50.932;3.142;2023-11-21T02:29:12;9.70;99.90
18229;DHT22;9239;50.932;3.142;2023-11-21T02:31:42;9.70;99.90
18229;DHT22;9239;50.932;3.142;2023-11-21T02:34:13;9.70;99.90
18229;DHT22;9239;50.932;3.142;2023-11-21T02:36:40;9.70;99.90
18229;DHT22;9239;50.932;3.142;2023-11-21T02:39:08;9.80;99.90
18229;DHT22;9239;50.932;3.142;2023-11-21T02:41:37;9.80;99.90
18229;DHT22;9239;50.932;3.142;2023-11-21T02:44:04;9.80;99.90
18229;DHT22;9239;50.932;3.142;2023-11-21T02:46:33;9.80;99.90
18229;DHT22;9239;50.932;3.142;2023-11-21T02:49:00;9.80;99.90
18229;DHT22;9239;50.932;3.142;2023-11-21T02:51:27;9.80;99.90
18229;DHT22;9239;50.932;3.142;2023-11-21T02:53:54;9.90;99.90
18229;DHT22;9239;50.932;3.142;2023-11-21T02:56:24;9.90;99.90
18229;DHT22;9239;50.932;3.142;2023-11-21T02:58:52;9.90;99.90
18229;DHT22;9239;50.932;3.142;2023-11-21T03:01:19;9.90;99.90
18229;DHT22;9239;50.932;3.142;2023-11-21T03:03:46;9.90;99.90
18229;DHT22;9239;50.932;3.142;2023-11-21T03:06:16;9.90;99.90
18229;DHT22;9239;50.932;3.142;2023-11-21T03:08:43;9.90;99.90
18229;DHT22;9239;50.932;3.142;2023-11-21T03:11:10;9.90;99.90
18229;DHT22;9239;50.932;3.142;2023-11-21T03:13:38;9.90;99.90
18229;DHT22;9239;50.932;3.142;2023-11-21T03:16:07;9.90;99.90
18229;DHT22;9239;50.932;3.142;2023-11-21T03:18:34;9.90;99.90
18229;DHT22;9239;50.932;3.142;2023-11-21T03:21:01;9.90;99.90
18229;DHT22;9239;50.932;3.142;2023-11-21T03:23:28;9.90;99.90
18229;DHT22;9239;50.932;3.142;2023-11-21T03:25:55;9.90;99.90
18229;DHT22;9239;50.932;3.142;2023-11-21T03:28:22;10.00;99.90
18229;DHT22;9239;50.932;3.142;2023-11-21T03:30:50;10.00;99.90
18229;DHT22;9239;50.932;3.142;2023-11-21T03:33:18;10.00;99.90
18229;DHT22;9239;50.932;3.142;2023-11-21T03:35:45;10.00;99.90
18229;DHT22;9239;50.932;3.142;2023-11-21T03:38:12;10.00;99.90
18229;DHT22;9239;50.932;3.142;2023-11-21T03:40:39;10.10;99.90
18229;DHT22;9239;50.932;3.142;2023-11-21T03:43:06;10.00;99.90
18229;DHT22;9239;50.932;3.142;2023-11-21T03:45:33;10.00;99.90
18229;DHT22;9239;50.932;3.142;2023-11-21T03:48:00;10.10;99.90
18229;DHT22;9239;50.932;3.142;2023-11-21T03:50:29;10.10;99.90
18229;DHT22;9239;50.932;3.142;2023-11-21T03:52:56;10.10;99.90
18229;DHT22;9239;50.932;3.142;2023-11-21T03:55:22;10.10;99.90
18229;DHT22;9239;50.932;3.142;2023-11-21T03:57:50;10.10;99.90
18229;DHT22;9239;50.932;3.142;2023-11-21T04:00:18;10.10;99.90
18229;DHT22;9239;50.932;3.142;2023-11-21T04:02:46;10.10;99.90
18229;DHT22;9239;50.932;3.142;2023-11-21T04:05:13;10.10;99.90
18229;DHT22;9239;50.932;3.142;2023-11-21T04:07:41;10.10;99.90
18229;DHT22;9239;50.932;3.142;2023-11-21T04:10:08;10.10;99.90
18229;DHT22;9239;50.932;3.142;2023-11-21T04:12:38;10.10;99.90
18229;DHT22;9239;50.932;3.142;2023-11-21T04:15:05;10.10;99.90
18229;DHT22;9239;50.932;3.142;2023-11-21T04:17:34;10.20;99.90
18229;DHT22;9239;50.932;3.142;2023-11-21T04:20:02;10.20;99.90
18229;DHT22;9239;50.932;3.142;2023-11-21T04:22:29;10.20;99.90
18229;DHT22;9239;50.932;3.142;2023-11-21T04:24:57;10.20;99.90
18229;DHT22;9239;50.932;3.142;2023-11-21T04:27:24;10.20;99.90
18229;DHT22;9239;50.932;3.142;2023-11-21T04:29:51;10.20;99.90
18229;DHT22;9239;50.932;3.142;2023-11-21T04:32:18;10.20;99.90
18229;DHT22;9239;50.932;3.142;2023-11-21T04:34:44;10.30;99.90
18229;DHT22;9239;50.932;3.142;2023-11-21T04:37:11;10.20;99.90
18229;DHT22;9239;50.932;3.142;2023-11-21T04:39:38;10.20;99.90
18229;DHT22;9239;50.932;3.142;2023-11-21T04:42:07;10.30;99.90
18229;DHT22;9239;50.932;3.142;2023-11-21T04:44:34;10.30;99.90
18229;DHT22;9239;50.932;3.142;2023-11-21T04:47:00;10.30;99.90
18229;DHT22;9239;50.932;3.142;2023-11-21T04:49:30;10.30;99.90
18229;DHT22;9239;50.932;3.142;2023-11-21T04:51:57;10.30;99.90
18229;DHT22;9239;50.932;3.142;2023-11-21T04:54:24;10.30;99.90
18229;DHT22;9239;50.932;3.142;2023-11-21T04:56:51;10.30;99.90
18229;DHT22;9239;50.932;3.142;2023-11-21T04:59:19;10.40;99.90
18229;DHT22;9239;50.932;3.142;2023-11-21T05:01:46;10.40;99.90
18229;DHT22;9239;50.932;3.142;2023-11-21T05:04:12;10.50;99.90
18229;DHT22;9239;50.932;3.142;2023-11-21T05:06:40;10.50;99.90
18229;DHT22;9239;50.932;3.142;2023-11-21T05:09:07;10.50;99.90
18229;DHT22;9239;50.932;3.142;2023-11-21T05:11:37;10.50;99.90
18229;DHT22;9239;50.932;3.142;2023-11-21T05:14:04;10.60;99.90
18229;DHT22;9239;50.932;3.142;2023-11-21T05:16:34;10.70;99.90
18229;DHT22;9239;50.932;3.142;2023-11-21T05:19:01;10.70;99.90
18229;DHT22;9239;50.932;3.142;2023-11-21T05:21:28;10.70;99.90
18229;DHT22;9239;50.932;3.142;2023-11-21T05:23:55;10.70;99.90
18229;DHT22;9239;50.932;3.142;2023-11-21T05:26:22;10.80;99.90
18229;DHT22;9239;50.932;3.142;2023-11-21T05:28:49;10.70;99.90
18229;DHT22;9239;50.932;3.142;2023-11-21T05:31:16;10.80;99.90
18229;DHT22;9239;50.932;3.142;2023-11-21T05:33:45;10.80;99.90
18229;DHT22;9239;50.932;3.142;2023-11-21T05:36:12;10.80;99.90
18229;DHT22;9239;50.932;3.142;2023-11-21T05:38:39;10.90;99.90
18229;DHT22;9239;50.932;3.142;2023-11-21T05:41:07;10.80;99.90
18229;DHT22;9239;50.932;3.142;2023-11-21T05:43:36;10.90;99.90
18229;DHT22;9239;50.932;3.142;2023-11-21T05:46:03;10.80;99.90
18229;DHT22;9239;50.932;3.142;2023-11-21T05:48:31;10.80;99.90
18229;DHT22;9239;50.932;3.142;2023-11-21T05:50:59;10.80;99.90
18229;DHT22;9239;50.932;3.142;2023-11-21T05:53:27;10.80;99.90
18229;DHT22;9239;50.932;3.142;2023-11-21T05:55:54;10.80;99.90
18229;DHT22;9239;50.932;3.142;2023-11-21T05:58:21;10.80;99.90
18229;DHT22;9239;50.932;3.142;2023-11-21T06:00:48;10.80;99.90
18229;DHT22;9239;50.932;3.142;2023-11-21T06:03:15;10.80;99.90
18229;DHT22;9239;50.932;3.142;2023-11-21T06:05:43;10.70;99.90
18229;DHT22;9239;50.932;3.142;2023-11-21T06:08:11;10.70;99.90
18229;DHT22;9239;50.932;3.142;2023-11-21T06:10:38;10.80;99.90
18229;DHT22;9239;50.932;3.142;2023-11-21T06:13:06;10.70;99.90
18229;DHT22;9239;50.932;3.142;2023-11-21T06:15:33;10.70;99.90
18229;DHT22;9239;50.932;3.142;2023-11-21T06:18:00;10.70;99.90
18229;DHT22;9239;50.932;3.142;2023-11-21T06:20:26;10.70;99.90
18229;DHT22;9239;50.932;3.142;2023-11-21T06:22:54;10.70;99.90
18229;DHT22;9239;50.932;3.142;2023-11-21T06:25:22;10.60;99.90
18229;DHT22;9239;50.932;3.142;2023-11-21T06:27:50;10.60;99.90
18229;DHT22;9239;50.932;3.142;2023-11-21T06:30:18;10.70;99.90
18229;DHT22;9239;50.932;3.142;2023-11-21T06:32:45;10.70;99.90
18229;DHT22;9239;50.932;3.142;2023-11-21T06:35:12;10.70;99.90
18229;DHT22;9239;50.932;3.142;2023-11-21T06:37:40;10.70;99.90
18229;DHT22;9239;50.932;3.142;2023-11-21T06:40:13;10.60;99.90
18229;DHT22;9239;50.932;3.142;2023-11-21T06:42:42;10.60;99.90
18229;DHT22;9239;50.932;3.142;2023-11-21T06:45:10;10.60;99.90
18229;DHT22;9239;50.932;3.142;2023-11-21T06:47:36;10.60;99.90
18229;DHT22;9239;50.932;3.142;2023-11-21T06:50:05;10.60;99.90
18229;DHT22;9239;50.932;3.142;2023-11-21T06:52:33;10.60;99.90
18229;DHT22;9239;50.932;3.142;2023-11-21T06:54:59;10.70;99.90
18229;DHT22;9239;50.932;3.142;2023-11-21T06:57:26;10.60;99.90
18229;DHT22;9239;50.932;3.142;2023-11-21T06:59:54;10.60;99.90
18229;DHT22;9239;50.932;3.142;2023-11-21T07:02:22;10.60;99.90
18229;DHT22;9239;50.932;3.142;2023-11-21T07:04:49;10.70;99.90
18229;DHT22;9239;50.932;3.142;2023-11-21T07:07:17;10.70;99.90
18229;DHT22;9239;50.932;3.142;2023-11-21T07:09:44;10.60;99.90
18229;DHT22;9239;50.932;3.142;2023-11-21T07:12:11;10.60;99.90
18229;DHT22;9239;50.932;3.142;2023-11-21T07:14:38;10.60;99.90
18229;DHT22;9239;50.932;3.142;2023-11-21T07:17:10;10.60;99.90
18229;DHT22;9239;50.932;3.142;2023-11-21T07:19:37;10.60;99.90
18229;DHT22;9239;50.932;3.142;2023-11-21T07:22:04;10.60;99.90
18229;DHT22;9239;50.932;3.142;2023-11-21T07:24:32;10.60;99.90
18229;DHT22;9239;50.932;3.142;2023-11-21T07:26:58;10.60;99.90
18229;DHT22;9239;50.932;3.142;2023-11-21T07:29:26;10.60;99.90
18229;DHT22;9239;50.932;3.142;2023-11-21T07:31:55;10.60;99.90
18229;DHT22;9239;50.932;3.142;2023-11-21T07:34:23;10.60;99.90
18229;DHT22;9239;50.932;3.142;2023-11-21T07:36:50;10.60;99.90
18229;DHT22;9239;50.932;3.142;2023-11-21T07:39:17;10.60;99.90
18229;DHT22;9239;50.932;3.142;2023-11-21T07:41:44;10.70;99.90
18229;DHT22;9239;50.932;3.142;2023-11-21T07:44:14;10.60;99.90
18229;DHT22;9239;50.932;3.142;2023-11-21T07:46:41;10.70;99.90
18229;DHT22;9239;50.932;3.142;2023-11-21T07:49:08;10.70;99.90
18229;DHT22;9239;50.932;3.142;2023-11-21T07:51:37;10.70;99.90
18229;DHT22;9239;50.932;3.142;2023-11-21T07:54:04;10.70;99.90
18229;DHT22;9239;50.932;3.142;2023-11-21T07:56:31;10.70;99.90
18229;DHT22;9239;50.932;3.142;2023-11-21T07:58:58;10.80;99.90
18229;DHT22;9239;50.932;3.142;2023-11-21T08:01:25;10.80;99.90
18229;DHT22;9239;50.932;3.142;2023-11-21T08:03:53;10.80;99.90
18229;DHT22;9239;50.932;3.142;2023-11-21T08:06:22;10.80;99.90
18229;DHT22;9239;50.932;3.142;2023-11-21T08:08:51;10.80;99.90
18229;DHT22;9239;50.932;3.142;2023-11-21T08:11:18;10.80;99.90
18229;DHT22;9239;50.932;3.142;2023-11-21T08:13:45;10.80;99.90
18229;DHT22;9239;50.932;3.142;2023-11-21T08:16:12;10.80;99.90
18229;DHT22;9239;50.932;3.142;2023-11-21T08:18:39;10.80;99.90
18229;DHT22;9239;50.932;3.142;2023-11-21T08:21:06;10.80;99.90
18229;DHT22;9239;50.932;3.142;2023-11-21T08:23:33;10.80;99.90
18229;DHT22;9239;50.932;3.142;2023-11-21T08:26:02;10.80;99.90
18229;DHT22;9239;50.932;3.142;2023-11-21T08:28:29;10.80;99.90
18229;DHT22;9239;50.932;3.142;2023-11-21T08:30:56;10.80;99.90
18229;DHT22;9239;50.932;3.142;2023-11-21T08:33:22;10.80;99.90
18229;DHT22;9239;50.932;3.142;2023-11-21T08:35:49;10.70;99.90
18229;DHT22;9239;50.932;3.142;2023-11-21T08:38:17;10.80;99.90
18229;DHT22;9239;50.932;3.142;2023-11-21T08:40:44;10.80;99.90
18229;DHT22;9239;50.932;3.142;2023-11-21T08:43:12;10.90;99.90
18229;DHT22;9239;50.932;3.142;2023-11-21T08:45:40;10.90;99.90
18229;DHT22;9239;50.932;3.142;2023-11-21T08:48:07;10.90;99.90
18229;DHT22;9239;50.932;3.142;2023-11-21T08:50:34;11.00;99.90
18229;DHT22;9239;50.932;3.142;2023-11-21T08:53:01;11.00;99.90
18229;DHT22;9239;50.932;3.142;2023-11-21T08:55:28;11.00;99.90
18229;DHT22;9239;50.932;3.142;2023-11-21T08:57:54;11.00;99.90
18229;DHT22;9239;50.932;3.142;2023-11-21T09:00:23;11.10;99.90
18229;DHT22;9239;50.932;3.142;2023-11-21T09:02:50;11.10;99.90
18229;DHT22;9239;50.932;3.142;2023-11-21T09:05:17;11.10;99.90
18229;DHT22;9239;50.932;3.142;2023-11-21T09:07:44;11.20;99.90
18229;DHT22;9239;50.932;3.142;2023-11-21T09:10:14;11.20;99.90
18229;DHT22;9239;50.932;3.142;2023-11-21T09:12:41;11.20;99.90
18229;DHT22;9239;50.932;3.142;2023-11-21T09:15:09;11.30;99.90
18229;DHT22;9239;50.932;3.142;2023-11-21T09:17:38;11.30;99.90
18229;DHT22;9239;50.932;3.142;2023-11-21T09:20:07;11.30;99.90
18229;DHT22;9239;50.932;3.142;2023-11-21T09:22:35;11.40;99.90
18229;DHT22;9239;50.932;3.142;2023-11-21T09:25:02;11.40;99.90
18229;DHT22;9239;50.932;3.142;2023-11-21T09:27:31;11.50;99.90
18229;DHT22;9239;50.932;3.142;2023-11-21T09:29:58;11.50;99.90
18229;DHT22;9239;50.932;3.142;2023-11-21T09:32:24;11.60;99.90
18229;DHT22;9239;50.932;3.142;2023-11-21T09:34:53;11.80;99.90
18229;DHT22;9239;50.932;3.142;2023-11-21T09:37:21;11.90;99.90
18229;DHT22;9239;50.932;3.142;2023-11-21T09:39:47;11.90;99.90
18229;DHT22;9239;50.932;3.142;2023-11-21T09:42:19;12.10;99.90
18229;DHT22;9239;50.932;3.142;2023-11-21T09:44:54;12.10;99.90
18229;DHT22;9239;50.932;3.142;2023-11-21T09:47:26;12.10;99.90
18229;DHT22;9239;50.932;3.142;2023-11-21T09:49:56;12.20;99.90
18229;DHT22;9239;50.932;3.142;2023-11-21T09:52:28;12.10;99.90
18229;DHT22;9239;50.932;3.142;2023-11-21T09:54:56;12.20;99.90
18229;DHT22;9239;50.932;3.142;2023-11-21T09:57:24;12.20;99.90
18229;DHT22;9239;50.932;3.142;2023-11-21T09:59:52;12.30;99.90
18229;DHT22;9239;50.932;3.142;2023-11-21T10:02:22;12.30;99.90
18229;DHT22;9239;50.932;3.142;2023-11-21T10:04:51;12.40;99.90
18229;DHT22;9239;50.932;3.142;2023-11-21T10:07:21;12.40;99.90
18229;DHT22;9239;50.932;3.142;2023-11-21T10:09:48;12.40;99.90
18229;DHT22;9239;50.932;3.142;2023-11-21T10:12:17;12.40;99.90
18229;DHT22;9239;50.932;3.142;2023-11-21T10:14:47;12.30;99.90
18229;DHT22;9239;50.932;3.142;2023-11-21T10:17:15;12.20;99.90
18229;DHT22;9239;50.932;3.142;2023-11-21T10:19:46;12.10;99.90
18229;DHT22;9239;50.932;3.142;2023-11-21T10:22:14;12.00;99.90
18229;DHT22;9239;50.932;3.142;2023-11-21T10:24:43;11.90;99.90
18229;DHT22;9239;50.932;3.142;2023-11-21T10:27:10;11.80;99.90
18229;DHT22;9239;50.932;3.142;2023-11-21T10:29:39;11.80;99.90
18229;DHT22;9239;50.932;3.142;2023-11-21T10:32:07;11.70;99.90
18229;DHT22;9239;50.932;3.142;2023-11-21T10:34:34;11.70;99.90
18229;DHT22;9239;50.932;3.142;2023-11-21T10:37:11;11.80;99.90
18229;DHT22;9239;50.932;3.142;2023-11-21T10:39:39;11.80;99.90
18229;DHT22;9239;50.932;3.142;2023-11-21T10:42:09;11.80;99.90
18229;DHT22;9239;50.932;3.142;2023-11-21T10:44:36;11.80;99.90
18229;DHT22;9239;50.932;3.142;2023-11-21T10:47:03;11.80;99.90
18229;DHT22;9239;50.932;3.142;2023-11-21T10:49:30;12.00;99.90
18229;DHT22;9239;50.932;3.142;2023-11-21T10:51:57;11.90;99.90
18229;DHT22;9239;50.932;3.142;2023-11-21T10:54:25;11.90;99.90
18229;DHT22;9239;50.932;3.142;2023-11-21T10:56:56;11.90;99.90
18229;DHT22;9239;50.932;3.142;2023-11-21T10:59:27;12.00;99.90
18229;DHT22;9239;50.932;3.142;2023-11-21T11:01:57;11.90;99.90
18229;DHT22;9239;50.932;3.142;2023-11-21T11:04:27;11.90;99.90
18229;DHT22;9239;50.932;3.142;2023-11-21T11:06:56;11.90;99.90
18229;DHT22;9239;50.932;3.142;2023-11-21T11:09:23;12.10;99.90
18229;DHT22;9239;50.932;3.142;2023-11-21T11:11:51;12.20;99.90
18229;DHT22;9239;50.932;3.142;2023-11-21T11:14:19;12.20;99.90
18229;DHT22;9239;50.932;3.142;2023-11-21T11:16:53;12.30;99.90
18229;DHT22;9239;50.932;3.142;2023-11-21T11:19:21;12.30;99.90
18229;DHT22;9239;50.932;3.142;2023-11-21T11:21:53;12.20;99.90
18229;DHT22;9239;50.932;3.142;2023-11-21T11:24:44;12.30;99.90
18229;DHT22;9239;50.932;3.142;2023-11-21T11:27:22;12.30;99.90
18229;DHT22;9239;50.932;3.142;2023-11-21T11:29:58;12.30;99.90
18229;DHT22;9239;50.932;3.142;2023-11-21T11:32:38;12.30;99.90
18229;DHT22;9239;50.932;3.142;2023-11-21T11:35:13;12.20;99.90
18229;DHT22;9239;50.932;3.142;2023-11-21T11:37:44;12.20;99.90
18229;DHT22;9239;50.932;3.142;2023-11-21T11:40:13;12.20;99.90
18229;DHT22;9239;50.932;3.142;2023-11-21T11:42:55;12.20;99.90
18229;DHT22;9239;50.932;3.142;2023-11-21T11:45:23;12.20;99.90
18229;DHT22;9239;50.932;3.142;2023-11-21T11:47:58;12.20;99.90
18229;DHT22;9239;50.932;3.142;2023-11-21T11:50:26;12.30;99.90
18229;DHT22;9239;50.932;3.142;2023-11-21T11:52:53;12.30;99.90
18229;DHT22;9239;50.932;3.142;2023-11-21T11:55:24;12.30;99.90
18229;DHT22;9239;50.932;3.142;2023-11-21T11:57:52;12.30;99.90
18229;DHT22;9239;50.932;3.142;2023-11-21T12:00:32;12.30;99.90
18229;DHT22;9239;50.932;3.142;2023-11-21T12:03:05;12.40;99.90
18229;DHT22;9239;50.932;3.142;2023-11-21T12:05:33;12.40;99.90
18229;DHT22;9239;50.932;3.142;2023-11-21T12:08:05;12.40;99.90
18229;DHT22;9239;50.932;3.142;2023-11-21T12:10:33;12.40;99.90
18229;DHT22;9239;50.932;3.142;2023-11-21T12:13:02;12.30;99.90
18229;DHT22;9239;50.932;3.142;2023-11-21T12:15:31;12.20;99.90
18229;DHT22;9239;50.932;3.142;2023-11-21T12:17:58;12.20;99.90
18229;DHT22;9239;50.932;3.142;2023-11-21T12:20:27;12.20;99.90
18229;DHT22;9239;50.932;3.142;2023-11-21T12:22:55;12.20;99.90
18229;DHT22;9239;50.932;3.142;2023-11-21T12:25:24;12.00;99.90
18229;DHT22;9239;50.932;3.142;2023-11-21T12:27:54;12.00;99.90
18229;DHT22;9239;50.932;3.142;2023-11-21T12:30:23;12.00;99.90
18229;DHT22;9239;50.932;3.142;2023-11-21T12:32:54;12.20;99.90
18229;DHT22;9239;50.932;3.142;2023-11-21T12:35:23;12.20;99.90
18229;DHT22;9239;50.932;3.142;2023-11-21T12:37:52;12.30;99.90
18229;DHT22;9239;50.932;3.142;2023-11-21T12:40:19;12.30;99.90
18229;DHT22;9239;50.932;3.142;2023-11-21T12:42:49;12.30;99.90
18229;DHT22;9239;50.932;3.142;2023-11-21T12:45:21;12.30;99.90
18229;DHT22;9239;50.932;3.142;2023-11-21T12:47:48;12.30;99.90
18229;DHT22;9239;50.932;3.142;2023-11-21T12:50:18;12.20;99.90
18229;DHT22;9239;50.932;3.142;2023-11-21T12:52:51;12.20;99.90
18229;DHT22;9239;50.932;3.142;2023-11-21T12:55:20;12.20;99.90
18229;DHT22;9239;50.932;3.142;2023-11-21T12:57:49;12.20;99.90
18229;DHT22;9239;50.932;3.142;2023-11-21T13:00:18;12.20;99.90
18229;DHT22;9239;50.932;3.142;2023-11-21T13:02:54;12.20;99.90
18229;DHT22;9239;50.932;3.142;2023-11-21T13:05:29;12.20;99.90
18229;DHT22;9239;50.932;3.142;2023-11-21T13:08:00;12.30;99.90
18229;DHT22;9239;50.932;3.142;2023-11-21T13:10:30;12.30;99.90
18229;DHT22;9239;50.932;3.142;2023-11-21T13:12:57;12.20;99.90
18229;DHT22;9239;50.932;3.142;2023-11-21T13:15:26;12.20;99.90
18229;DHT22;9239;50.932;3.142;2023-11-21T13:17:54;12.30;99.90
18229;DHT22;9239;50.932;3.142;2023-11-21T13:20:21;12.30;99.90
18229;DHT22;9239;50.932;3.142;2023-11-21T13:22:50;12.20;99.90
18229;DHT22;9239;50.932;3.142;2023-11-21T13:25:20;12.20;99.90
18229;DHT22;9239;50.932;3.142;2023-11-21T13:27:47;12.20;99.90
18229;DHT22;9239;50.932;3.142;2023-11-21T13:30:16;12.20;99.90
18229;DHT22;9239;50.932;3.142;2023-11-21T13:32:43;12.20;99.90
18229;DHT22;9239;50.932;3.142;2023-11-21T13:35:12;12.20;99.90
18229;DHT22;9239;50.932;3.142;2023-11-21T13:37:52;12.30;99.90
18229;DHT22;9239;50.932;3.142;2023-11-21T13:40:23;12.40;99.90
18229;DHT22;9239;50.932;3.142;2023-11-21T13:42:53;12.40;99.90
18229;DHT22;9239;50.932;3.142;2023-11-21T13:45:23;12.30;99.90
18229;DHT22;9239;50.932;3.142;2023-11-21T13:47:51;12.30;99.90
18229;DHT22;9239;50.932;3.142;2023-11-21T13:50:22;12.30;99.90
18229;DHT22;9239;50.932;3.142;2023-11-21T13:52:51;12.30;99.90
18229;DHT22;9239;50.932;3.142;2023-11-21T13:55:19;12.30;99.90
18229;DHT22;9239;50.932;3.142;2023-11-21T13:57:51;12.30;99.90
18229;DHT22;9239;50.932;3.142;2023-11-21T14:00:18;12.30;99.90
18229;DHT22;9239;50.932;3.142;2023-11-21T14:03:11;12.20;99.90
18229;DHT22;9239;50.932;3.142;2023-11-21T14:05:44;12.20;99.90
18229;DHT22;9239;50.932;3.142;2023-11-21T14:08:13;12.10;99.90
18229;DHT22;9239;50.932;3.142;2023-11-21T14:10:45;12.10;99.90
18229;DHT22;9239;50.932;3.142;2023-11-21T14:13:17;12.00;99.90
18229;DHT22;9239;50.932;3.142;2023-11-21T14:15:45;12.00;99.90
18229;DHT22;9239;50.932;3.142;2023-11-21T14:18:16;12.20;99.90
18229;DHT22;9239;50.932;3.142;2023-11-21T14:20:46;12.20;99.90
18229;DHT22;9239;50.932;3.142;2023-11-21T14:23:13;12.30;99.90
18229;DHT22;9239;50.932;3.142;2023-11-21T14:25:41;12.30;99.90
18229;DHT22;9239;50.932;3.142;2023-11-21T14:28:08;12.40;99.90
18229;DHT22;9239;50.932;3.142;2023-11-21T14:30:38;12.30;99.90
18229;DHT22;9239;50.932;3.142;2023-11-21T14:33:06;12.40;99.90
18229;DHT22;9239;50.932;3.142;2023-11-21T14:35:34;12.40;99.90
18229;DHT22;9239;50.932;3.142;2023-11-21T14:38:01;12.30;99.90
18229;DHT22;9239;50.932;3.142;2023-11-21T14:40:30;12.30;99.90
18229;DHT22;9239;50.932;3.142;2023-11-21T14:42:59;12.30;99.90
18229;DHT22;9239;50.932;3.142;2023-11-21T14:45:26;12.20;99.90
18229;DHT22;9239;50.932;3.142;2023-11-21T14:47:55;12.20;99.90
18229;DHT22;9239;50.932;3.142;2023-11-21T14:50:32;12.20;99.90
18229;DHT22;9239;50.932;3.142;2023-11-21T14:53:14;12.10;99.90
18229;DHT22;9239;50.932;3.142;2023-11-21T14:55:40;12.10;99.90
18229;DHT22;9239;50.932;3.142;2023-11-21T14:58:23;12.00;99.90
18229;DHT22;9239;50.932;3.142;2023-11-21T15:00:56;11.90;99.90
18229;DHT22;9239;50.932;3.142;2023-11-21T15:03:29;11.80;99.90
18229;DHT22;9239;50.932;3.142;2023-11-21T15:06:09;11.70;99.90
18229;DHT22;9239;50.932;3.142;2023-11-21T15:08:49;11.70;99.90
18229;DHT22;9239;50.932;3.142;2023-11-21T15:11:20;11.60;99.90
18229;DHT22;9239;50.932;3.142;2023-11-21T15:13:53;11.60;99.90
18229;DHT22;9239;50.932;3.142;2023-11-21T15:16:19;11.60;99.90
18229;DHT22;9239;50.932;3.142;2023-11-21T15:18:47;11.60;99.90
18229;DHT22;9239;50.932;3.142;2023-11-21T15:21:14;11.50;99.90
18229;DHT22;9239;50.932;3.142;2023-11-21T15:23:41;11.50;99.90
18229;DHT22;9239;50.932;3.142;2023-11-21T15:26:08;11.50;99.90
18229;DHT22;9239;50.932;3.142;2023-11-21T15:28:36;11.50;99.90
18229;DHT22;9239;50.932;3.142;2023-11-21T15:31:02;11.40;99.90
18229;DHT22;9239;50.932;3.142;2023-11-21T15:33:30;11.40;99.90
18229;DHT22;9239;50.932;3.142;2023-11-21T15:35:58;11.30;99.90
18229;DHT22;9239;50.932;3.142;2023-11-21T15:38:25;11.30;99.90
18229;DHT22;9239;50.932;3.142;2023-11-21T15:40:51;11.30;99.90
18229;DHT22;9239;50.932;3.142;2023-11-21T15:43:19;11.20;99.90
18229;DHT22;9239;50.932;3.142;2023-11-21T15:45:46;11.20;99.90
18229;DHT22;9239;50.932;3.142;2023-11-21T15:48:13;11.20;99.90
18229;DHT22;9239;50.932;3.142;2023-11-21T15:50:42;11.10;99.90
18229;DHT22;9239;50.932;3.142;2023-11-21T15:53:10;11.10;99.90
18229;DHT22;9239;50.932;3.142;2023-11-21T15:55:37;11.00;99.90
18229;DHT22;9239;50.932;3.142;2023-11-21T15:58:08;10.90;99.90